Jiaonan, China
Current Conditions -  °F | °C
As of 7:00 AM on Saturday 25 Oct 2014 (Local Time) from ZSQD Reporting Station
Haze Haze  
Wind Chill: 64°   Ceiling: Unl
Heat Index: 64°   Visibility: 2.5mi
Dew Point: 57°   Wind: 11mph
Humidity: 77%   Direction: 160°SSE
Pressure: 30"   Gusts: NA
Location:  35.88°N, 119.96°E
Report Text: ZSQD 242300Z 16005MPS 4000 BR NSC 18/14 Q1016 NOSIG
Loading
Personal Weather Stations






























Interactive Weather Map New forecast layout! Learn more

10-Day Weather Forecast

Advertisements
Track Severe Weather on mobile